Time,TemperatureF,DewpointF,PressureIn,WindDirection,WindDirectionDegrees,WindSpeedMPH,WindSpeedGustMPH,Humidity,HourlyPrecipIn,Conditions,Clouds,dailyrainin,SoftwareType,DateUTC
2013-01-30 00:05:00,53.8,36.1,29.84,ENE,64,6.0,6.0,51,0.00,,,0.00,meteohub,2013-01-30 08:05:00,
2013-01-30 00:11:00,54.0,36.3,29.84,NE,37,3.0,6.0,51,0.00,,,0.00,meteohub,2013-01-30 08:11:00,
2013-01-30 00:17:00,53.8,36.1,29.84,NE,36,0.0,6.0,51,0.00,,,0.00,meteohub,2013-01-30 08:17:00,
2013-01-30 00:23:00,53.6,36.0,29.84,ENE,63,0.0,4.0,51,0.00,,,0.00,meteohub,2013-01-30 08:23:00,
2013-01-30 00:29:00,53.8,36.5,29.84,North,0,0.0,4.0,52,0.00,,,0.00,meteohub,2013-01-30 08:29:00,
2013-01-30 00:35:00,53.8,36.5,29.84,North,353,0.0,4.0,52,0.00,,,0.00,meteohub,2013-01-30 08:35:00,
2013-01-30 00:41:00,53.6,36.9,29.84,North,353,0.0,3.0,53,0.00,,,0.00,meteohub,2013-01-30 08:41:00,
2013-01-30 00:47:00,53.1,36.0,29.84,North,353,0.0,3.0,52,0.00,,,0.00,meteohub,2013-01-30 08:47:00,
2013-01-30 00:53:00,53.1,37.4,29.84,ENE,69,3.0,3.0,55,0.00,,,0.00,meteohub,2013-01-30 08:53:00,
2013-01-30 00:59:00,54.0,38.7,29.84,NE,34,3.0,4.0,56,0.00,,,0.00,meteohub,2013-01-30 08:59:00,
2013-01-30 01:05:00,54.0,38.1,29.84,ENE,59,4.0,4.0,55,0.00,,,0.00,meteohub,2013-01-30 09:05:00,
2013-01-30 01:11:00,54.1,38.3,29.84,East,86,4.0,5.0,55,0.00,,,0.00,meteohub,2013-01-30 09:11:00,
2013-01-30 01:17:00,54.3,38.5,29.84,NNE,17,4.0,5.0,55,0.00,,,0.00,meteohub,2013-01-30 09:17:00,
2013-01-30 01:23:00,54.5,37.8,29.84,ENE,70,2.0,6.0,53,0.00,,,0.00,meteohub,2013-01-30 09:23:00,
2013-01-30 01:29:00,54.3,37.0,29.84,NE,43,4.0,6.0,52,0.00,,,0.00,meteohub,2013-01-30 09:29:00,
2013-01-30 01:35:00,54.1,36.3,29.84,NE,34,0.0,6.0,51,0.00,,,0.00,meteohub,2013-01-30 09:35:00,
2013-01-30 01:41:00,54.0,36.3,29.84,ENE,72,3.0,6.0,51,0.00,,,0.00,meteohub,2013-01-30 09:41:00,
2013-01-30 01:47:00,53.8,36.1,29.84,East,81,3.0,5.0,51,0.00,,,0.00,meteohub,2013-01-30 09:47:00,
2013-01-30 01:53:00,53.8,36.1,29.84,ENE,65,0.0,5.0,51,0.00,,,0.00,meteohub,2013-01-30 09:53:00,
2013-01-30 01:59:00,53.8,36.5,29.84,ENE,65,0.0,5.0,52,0.00,,,0.00,meteohub,2013-01-30 09:59:00,
2013-01-30 02:05:00,53.2,36.1,29.84,ENE,65,0.0,4.0,52,0.00,,,0.00,meteohub,2013-01-30 10:05:00,
2013-01-30 02:11:00,52.7,36.0,29.84,NNE,17,0.0,3.0,53,0.00,,,0.00,meteohub,2013-01-30 10:11:00,
2013-01-30 02:17:00,52.7,36.0,29.84,NNE,21,0.0,4.0,53,0.00,,,0.00,meteohub,2013-01-30 10:17:00,
2013-01-30 02:23:00,52.2,36.0,29.84,NNE,21,0.0,4.0,54,0.00,,,0.00,meteohub,2013-01-30 10:23:00,
2013-01-30 02:29:00,52.3,36.7,29.84,NNE,30,3.0,4.0,55,0.00,,,0.00,meteohub,2013-01-30 10:29:00,
2013-01-30 02:35:00,52.5,37.8,29.84,NE,48,3.0,4.0,57,0.00,,,0.00,meteohub,2013-01-30 10:35:00,
2013-01-30 02:41:00,52.5,37.8,29.87,NE,51,4.0,4.0,57,0.00,,,0.00,meteohub,2013-01-30 10:41:00,
2013-01-30 02:47:00,52.9,39.0,29.87,NE,49,0.0,4.0,59,0.00,,,0.00,meteohub,2013-01-30 10:47:00,
2013-01-30 02:53:00,52.9,39.0,29.87,NE,46,0.0,4.0,59,0.00,,,0.00,meteohub,2013-01-30 10:53:00,
2013-01-30 03:00:00,53.1,39.9,29.87,ENE,72,0.0,4.0,61,0.00,,,0.00,meteohub,2013-01-30 11:00:00,
2013-01-30 03:06:00,54.0,40.8,29.87,ENE,72,0.0,0.0,61,0.00,,,0.00,meteohub,2013-01-30 11:06:00,
2013-01-30 03:12:00,54.1,41.4,29.87,ENE,72,0.0,0.0,62,0.00,,,0.00,meteohub,2013-01-30 11:12:00,
2013-01-30 03:18:00,54.1,40.6,29.87,ENE,72,0.0,0.0,60,0.00,,,0.00,meteohub,2013-01-30 11:18:00,
2013-01-30 03:24:00,54.3,40.8,29.87,NNW,343,0.0,0.0,60,0.00,,,0.00,meteohub,2013-01-30 11:24:00,
2013-01-30 03:30:00,53.6,39.6,29.87,North,1,0.0,0.0,59,0.00,,,0.00,meteohub,2013-01-30 11:30:00,
2013-01-30 03:36:00,53.1,41.2,29.87,North,1,0.0,0.0,64,0.00,,,0.00,meteohub,2013-01-30 11:36:00,
2013-01-30 03:42:00,53.6,41.7,29.87,North,357,0.0,0.0,64,0.00,,,0.00,meteohub,2013-01-30 11:42:00,
2013-01-30 03:48:00,53.1,40.5,29.87,NNE,27,0.0,4.0,62,0.00,,,0.00,meteohub,2013-01-30 11:48:00,
2013-01-30 03:54:00,52.9,40.6,29.87,NNE,27,0.0,4.0,63,0.00,,,0.00,meteohub,2013-01-30 11:54:00,
2013-01-30 04:00:00,52.9,41.0,29.87,NNE,26,0.0,3.0,64,0.00,,,0.00,meteohub,2013-01-30 12:00:00,
2013-01-30 04:06:00,53.1,41.5,29.87,NNE,27,0.0,2.0,65,0.00,,,0.00,meteohub,2013-01-30 12:06:00,
2013-01-30 04:12:00,53.1,40.8,29.87,NNE,27,0.0,3.0,63,0.00,,,0.00,meteohub,2013-01-30 12:12:00,
2013-01-30 04:18:00,53.2,41.4,29.87,NE,37,0.0,3.0,64,0.00,,,0.00,meteohub,2013-01-30 12:18:00,
2013-01-30 04:24:00,53.4,41.9,29.87,NNE,28,0.0,3.0,65,0.00,,,0.00,meteohub,2013-01-30 12:24:00,
2013-01-30 04:30:00,53.1,41.5,29.87,ENE,60,3.0,0.0,65,0.00,,,0.00,meteohub,2013-01-30 12:30:00,
2013-01-30 04:36:00,53.2,41.7,29.87,NNE,29,2.0,4.0,65,0.00,,,0.00,meteohub,2013-01-30 12:36:00,
2013-01-30 04:42:00,53.2,42.3,29.87,NNE,29,0.0,4.0,66,0.00,,,0.00,meteohub,2013-01-30 12:42:00,
2013-01-30 04:48:00,53.4,42.8,29.87,NNE,29,0.0,3.0,67,0.00,,,0.00,meteohub,2013-01-30 12:48:00,
2013-01-30 04:54:00,53.1,42.1,29.87,NNE,29,0.0,3.0,66,0.00,,,0.00,meteohub,2013-01-30 12:54:00,
2013-01-30 05:00:00,53.1,42.1,29.87,NNE,29,0.0,0.0,66,0.00,,,0.00,meteohub,2013-01-30 13:00:00,
2013-01-30 05:06:00,53.2,43.0,29.87,NNE,18,0.0,0.0,68,0.00,,,0.00,meteohub,2013-01-30 13:06:00,
2013-01-30 05:12:00,53.1,42.4,29.87,NNE,19,0.0,0.0,67,0.00,,,0.00,meteohub,2013-01-30 13:12:00,
2013-01-30 05:18:00,53.1,42.4,29.87,NNE,19,0.0,0.0,67,0.00,,,0.00,meteohub,2013-01-30 13:18:00,
2013-01-30 05:24:00,53.1,42.4,29.87,NNE,30,0.0,0.0,67,0.00,,,0.00,meteohub,2013-01-30 13:24:00,
2013-01-30 05:30:00,54.0,44.1,29.87,NNE,12,0.0,0.0,69,0.00,,,0.00,meteohub,2013-01-30 13:30:00,
2013-01-30 05:36:00,53.8,43.5,29.87,NNE,12,0.0,2.0,68,0.00,,,0.00,meteohub,2013-01-30 13:36:00,
2013-01-30 05:43:00,54.1,43.3,29.90,SSW,202,0.0,2.0,67,0.00,,,0.00,meteohub,2013-01-30 13:43:00,
2013-01-30 05:49:00,53.4,42.8,29.90,SSW,202,0.0,3.0,67,0.00,,,0.00,meteohub,2013-01-30 13:49:00,
2013-01-30 05:55:00,53.1,42.1,29.90,NNE,12,0.0,3.0,66,0.00,,,0.00,meteohub,2013-01-30 13:55:00,
2013-01-30 06:01:00,52.9,41.9,29.90,NNE,14,0.0,0.0,66,0.00,,,0.00,meteohub,2013-01-30 14:01:00,
2013-01-30 06:07:00,52.7,41.7,29.90,NNE,14,0.0,0.0,66,0.00,,,0.00,meteohub,2013-01-30 14:07:00,
2013-01-30 06:13:00,52.9,42.6,29.90,North,353,0.0,0.0,68,0.00,,,0.00,meteohub,2013-01-30 14:13:00,
2013-01-30 06:19:00,52.7,42.4,29.90,North,353,0.0,0.0,68,0.00,,,0.00,meteohub,2013-01-30 14:19:00,
2013-01-30 06:25:00,53.2,43.0,29.90,North,353,0.0,0.0,68,0.00,,,0.00,meteohub,2013-01-30 14:25:00,
2013-01-30 06:31:00,53.4,43.5,29.90,North,6,0.0,0.0,69,0.00,,,0.00,meteohub,2013-01-30 14:31:00,
2013-01-30 06:37:00,53.2,43.0,29.90,North,9,0.0,0.0,68,0.00,,,0.00,meteohub,2013-01-30 14:37:00,
2013-01-30 06:43:00,52.9,42.3,29.90,North,9,0.0,0.0,67,0.00,,,0.00,meteohub,2013-01-30 14:43:00,
2013-01-30 06:49:00,53.4,44.2,29.90,North,9,0.0,0.0,71,0.00,,,0.00,meteohub,2013-01-30 14:49:00,
2013-01-30 06:55:00,53.6,44.1,29.90,NNE,16,0.0,0.0,70,0.00,,,0.00,meteohub,2013-01-30 14:55:00,
2013-01-30 07:01:00,54.1,45.0,29.90,NNW,345,0.0,0.0,71,0.00,,,0.00,meteohub,2013-01-30 15:01:00,
2013-01-30 07:07:00,54.1,44.2,29.90,NNW,345,0.0,0.0,69,0.00,,,0.00,meteohub,2013-01-30 15:07:00,
2013-01-30 07:13:00,54.0,43.3,29.93,NNW,345,0.0,0.0,67,0.00,,,0.00,meteohub,2013-01-30 15:13:00,
2013-01-30 07:19:00,54.3,43.5,29.93,North,11,0.0,0.0,67,0.00,,,0.00,meteohub,2013-01-30 15:19:00,
2013-01-30 07:25:00,54.7,44.2,29.93,North,11,0.0,0.0,68,0.00,,,0.00,meteohub,2013-01-30 15:25:00,
2013-01-30 07:31:00,55.0,44.6,29.93,North,11,0.0,0.0,68,0.00,,,0.00,meteohub,2013-01-30 15:31:00,
2013-01-30 07:37:00,55.8,45.0,29.93,North,4,0.0,0.0,67,0.00,,,0.00,meteohub,2013-01-30 15:37:00,
2013-01-30 07:43:00,56.1,44.6,29.93,North,10,0.0,0.0,65,0.00,,,0.00,meteohub,2013-01-30 15:43:00,
2013-01-30 07:49:00,56.7,45.0,29.93,North,10,0.0,0.0,65,0.00,,,0.00,meteohub,2013-01-30 15:49:00,
2013-01-30 07:55:00,57.2,45.1,29.93,North,10,0.0,0.0,64,0.00,,,0.00,meteohub,2013-01-30 15:55:00,
2013-01-30 08:01:00,58.1,44.2,29.93,North,10,0.0,0.0,60,0.00,,,0.00,meteohub,2013-01-30 16:01:00,
2013-01-30 08:07:00,58.6,40.6,29.93,North,3,0.0,0.0,51,0.00,,,0.00,meteohub,2013-01-30 16:07:00,
2013-01-30 08:13:00,59.2,38.5,29.93,NNW,335,0.0,0.0,46,0.00,,,0.00,meteohub,2013-01-30 16:13:00,
2013-01-30 08:19:00,59.7,38.8,29.93,NNW,335,0.0,0.0,46,0.00,,,0.00,meteohub,2013-01-30 16:19:00,
2013-01-30 08:25:00,59.7,38.3,29.93,NW,310,0.0,0.0,45,0.00,,,0.00,meteohub,2013-01-30 16:25:00,
2013-01-30 08:31:00,60.6,39.2,29.93,SSW,200,3.0,0.0,45,0.00,,,0.00,meteohub,2013-01-30 16:31:00,
2013-01-30 08:37:00,60.6,39.2,29.93,South,187,0.0,3.0,45,0.00,,,0.00,meteohub,2013-01-30 16:37:00,
2013-01-30 08:43:00,60.6,37.4,29.93,SE,145,0.0,3.0,42,0.00,,,0.00,meteohub,2013-01-30 16:43:00,
2013-01-30 08:50:00,60.6,36.1,29.93,SSE,165,0.0,4.0,40,0.00,,,0.00,meteohub,2013-01-30 16:50:00,
2013-01-30 08:56:00,60.4,34.7,29.96,SSW,198,0.0,4.0,38,0.00,,,0.00,meteohub,2013-01-30 16:56:00,
2013-01-30 09:02:00,60.6,34.9,29.96,SE,145,0.0,3.0,38,0.00,,,0.00,meteohub,2013-01-30 17:02:00,
2013-01-30 09:08:00,61.0,34.5,29.96,South,186,3.0,0.0,37,0.00,,,0.00,meteohub,2013-01-30 17:08:00,
2013-01-30 09:14:00,61.5,34.3,29.96,SSW,201,3.0,3.0,36,0.00,,,0.00,meteohub,2013-01-30 17:14:00,
2013-01-30 09:20:00,61.7,33.8,29.96,SW,216,4.0,5.0,35,0.00,,,0.00,meteohub,2013-01-30 17:20:00,
2013-01-30 09:26:00,61.7,33.8,29.96,SW,214,0.0,5.0,35,0.00,,,0.00,meteohub,2013-01-30 17:26:00,
2013-01-30 09:32:00,62.2,33.4,29.96,SW,227,3.0,5.0,34,0.00,,,0.00,meteohub,2013-01-30 17:32:00,
2013-01-30 09:38:00,63.1,33.6,29.96,SW,231,4.0,5.0,33,0.00,,,0.00,meteohub,2013-01-30 17:38:00,
2013-01-30 09:44:00,62.6,33.1,29.96,SW,231,4.0,5.0,33,0.00,,,0.00,meteohub,2013-01-30 17:44:00,
2013-01-30 09:50:00,63.0,33.4,29.96,South,180,5.0,6.0,33,0.00,,,0.00,meteohub,2013-01-30 17:50:00,
2013-01-30 09:56:00,66.2,35.4,29.96,SW,226,4.0,6.0,32,0.00,,,0.00,meteohub,2013-01-30 17:56:00,
2013-01-30 10:02:00,66.7,36.0,29.96,South,177,4.0,6.0,32,0.00,,,0.00,meteohub,2013-01-30 18:02:00,
2013-01-30 10:08:00,67.6,34.2,29.96,South,189,5.0,6.0,29,0.00,,,0.00,meteohub,2013-01-30 18:08:00,
2013-01-30 10:14:00,68.9,34.5,29.96,South,177,3.0,7.0,28,0.00,,,0.00,meteohub,2013-01-30 18:14:00,
2013-01-30 10:20:00,69.3,32.0,29.96,SW,225,4.0,6.0,25,0.00,,,0.00,meteohub,2013-01-30 18:20:00,
2013-01-30 10:26:00,73.9,33.8,29.96,WNW,284,3.0,6.0,23,0.00,,,0.00,meteohub,2013-01-30 18:26:00,
2013-01-30 10:32:00,76.6,34.9,29.96,South,186,0.0,6.0,22,0.00,,,0.00,meteohub,2013-01-30 18:32:00,
2013-01-30 10:38:00,74.8,33.4,29.96,WSW,253,0.0,5.0,22,0.00,,,0.00,meteohub,2013-01-30 18:38:00,
2013-01-30 10:44:00,78.4,35.2,29.93,NNW,334,0.0,5.0,21,0.00,,,0.00,meteohub,2013-01-30 18:44:00,
2013-01-30 10:51:00,74.5,33.1,29.93,SW,235,3.0,5.0,22,0.00,,,0.00,meteohub,2013-01-30 18:51:00,
2013-01-30 10:57:00,70.5,30.9,29.93,SSW,205,4.0,6.0,23,0.00,,,0.00,meteohub,2013-01-30 18:57:00,
2013-01-30 11:03:00,70.9,31.3,29.93,SW,218,4.0,6.0,23,0.00,,,0.00,meteohub,2013-01-30 19:03:00,
2013-01-30 11:09:00,71.4,31.6,29.93,WSW,239,5.0,6.0,23,0.00,,,0.00,meteohub,2013-01-30 19:09:00,
2013-01-30 11:15:00,66.6,28.6,29.93,SW,221,6.0,6.0,24,0.00,,,0.00,meteohub,2013-01-30 19:15:00,
2013-01-30 11:21:00,73.2,33.3,29.93,SSW,210,3.0,8.0,23,0.00,,,0.00,meteohub,2013-01-30 19:21:00,
2013-01-30 11:27:00,73.9,32.7,29.93,SW,224,4.0,8.0,22,0.00,,,0.00,meteohub,2013-01-30 19:27:00,
2013-01-30 11:33:00,72.9,31.8,29.93,WSW,257,3.0,6.0,22,0.00,,,0.00,meteohub,2013-01-30 19:33:00,
2013-01-30 11:39:00,71.8,30.9,29.93,West,279,4.0,6.0,22,0.00,,,0.00,meteohub,2013-01-30 19:39:00,
2013-01-30 11:45:00,73.9,32.7,29.93,NW,321,3.0,6.0,22,0.00,,,0.00,meteohub,2013-01-30 19:45:00,
2013-01-30 11:51:00,75.7,33.1,29.93,NW,307,4.0,6.0,21,0.00,,,0.00,meteohub,2013-01-30 19:51:00,
2013-01-30 11:57:00,75.4,32.7,29.90,NNW,328,4.0,6.0,21,0.00,,,0.00,meteohub,2013-01-30 19:57:00,
2013-01-30 12:03:00,75.4,32.7,29.90,WNW,292,4.0,6.0,21,0.00,,,0.00,meteohub,2013-01-30 20:03:00,
2013-01-30 12:09:00,77.7,34.7,29.90,WSW,246,4.0,6.0,21,0.00,,,0.00,meteohub,2013-01-30 20:09:00,
2013-01-30 12:15:00,79.3,34.7,29.90,SSE,147,5.0,7.0,20,0.00,,,0.00,meteohub,2013-01-30 20:15:00,
2013-01-30 12:21:00,78.1,34.9,29.90,WSW,251,7.0,7.0,21,0.00,,,0.00,meteohub,2013-01-30 20:21:00,
2013-01-30 12:27:00,79.5,34.9,29.90,NW,304,4.0,7.0,20,0.00,,,0.00,meteohub,2013-01-30 20:27:00,
2013-01-30 12:33:00,76.5,33.6,29.90,NNW,345,2.0,7.0,21,0.00,,,0.00,meteohub,2013-01-30 20:33:00,
2013-01-30 12:39:00,76.8,34.0,29.90,WNW,283,5.0,7.0,21,0.00,,,0.00,meteohub,2013-01-30 20:39:00,
2013-01-30 12:45:00,79.2,34.7,29.90,WSW,241,4.0,8.0,20,0.00,,,0.00,meteohub,2013-01-30 20:45:00,
2013-01-30 12:51:00,77.2,33.1,29.90,SSW,208,3.0,8.0,20,0.00,,,0.00,meteohub,2013-01-30 20:51:00,
2013-01-30 12:57:00,77.2,33.1,29.87,West,261,3.0,8.0,20,0.00,,,0.00,meteohub,2013-01-30 20:57:00,
2013-01-30 13:03:00,76.3,33.4,29.87,West,261,4.0,5.0,21,0.00,,,0.00,meteohub,2013-01-30 21:03:00,
2013-01-30 13:10:00,75.2,32.5,29.87,NW,323,4.0,5.0,21,0.00,,,0.00,meteohub,2013-01-30 21:10:00,
2013-01-30 13:16:00,79.0,34.5,29.87,WNW,300,4.0,6.0,20,0.00,,,0.00,meteohub,2013-01-30 21:16:00,
2013-01-30 13:22:00,75.0,32.4,29.87,WNW,290,6.0,6.0,21,0.00,,,0.00,meteohub,2013-01-30 21:22:00,
2013-01-30 13:28:00,77.7,34.7,29.87,West,278,4.0,6.0,21,0.00,,,0.00,meteohub,2013-01-30 21:28:00,
2013-01-30 13:34:00,78.3,34.0,29.87,SSW,204,4.0,6.0,20,0.00,,,0.00,meteohub,2013-01-30 21:34:00,
2013-01-30 13:40:00,79.0,34.5,29.87,WNW,299,4.0,6.0,20,0.00,,,0.00,meteohub,2013-01-30 21:40:00,
2013-01-30 13:46:00,80.8,36.0,29.87,NW,310,4.0,5.0,20,0.00,,,0.00,meteohub,2013-01-30 21:46:00,
2013-01-30 13:52:00,79.9,35.2,29.87,WSW,247,3.0,4.0,20,0.00,,,0.00,meteohub,2013-01-30 21:52:00,
2013-01-30 13:58:00,76.3,33.4,29.87,WNW,283,3.0,4.0,21,0.00,,,0.00,meteohub,2013-01-30 21:58:00,
2013-01-30 14:04:00,76.5,33.6,29.87,WSW,256,4.0,6.0,21,0.00,,,0.00,meteohub,2013-01-30 22:04:00,
2013-01-30 14:10:00,74.1,31.6,29.87,WSW,244,3.0,6.0,21,0.00,,,0.00,meteohub,2013-01-30 22:10:00,
2013-01-30 14:16:00,76.6,33.8,29.87,West,266,2.0,6.0,21,0.00,,,0.00,meteohub,2013-01-30 22:16:00,
2013-01-30 14:22:00,80.2,35.6,29.87,SW,224,4.0,5.0,20,0.00,,,0.00,meteohub,2013-01-30 22:22:00,
2013-01-30 14:28:00,81.7,36.7,29.84,WNW,289,3.0,5.0,20,0.00,,,0.00,meteohub,2013-01-30 22:28:00,
2013-01-30 14:34:00,79.7,35.1,29.84,SW,227,4.0,5.0,20,0.00,,,0.00,meteohub,2013-01-30 22:34:00,
2013-01-30 14:40:00,81.3,35.1,29.84,North,7,3.0,5.0,19,0.00,,,0.00,meteohub,2013-01-30 22:40:00,
2013-01-30 14:46:00,82.8,36.3,29.84,WNW,292,3.0,5.0,19,0.00,,,0.00,meteohub,2013-01-30 22:46:00,
2013-01-30 14:52:00,78.6,34.2,29.84,SSW,194,4.0,4.0,20,0.00,,,0.00,meteohub,2013-01-30 22:52:00,
2013-01-30 14:58:00,75.4,31.5,29.84,SW,222,4.0,6.0,20,0.00,,,0.00,meteohub,2013-01-30 22:58:00,
2013-01-30 15:04:00,77.0,32.9,29.84,West,269,3.0,6.0,20,0.00,,,0.00,meteohub,2013-01-30 23:04:00,
2013-01-30 15:10:00,78.1,33.8,29.84,WNW,301,4.0,5.0,20,0.00,,,0.00,meteohub,2013-01-30 23:10:00,
2013-01-30 15:16:00,77.0,32.9,29.84,WNW,292,4.0,6.0,20,0.00,,,0.00,meteohub,2013-01-30 23:16:00,
2013-01-30 15:22:00,79.3,34.7,29.84,NW,308,3.0,6.0,20,0.00,,,0.00,meteohub,2013-01-30 23:22:00,
2013-01-30 15:28:00,81.1,35.1,29.84,SSW,195,0.0,6.0,19,0.00,,,0.00,meteohub,2013-01-30 23:28:00,
2013-01-30 15:34:00,77.0,32.9,29.84,WNW,292,4.0,4.0,20,0.00,,,0.00,meteohub,2013-01-30 23:34:00,
2013-01-30 15:40:00,78.3,34.0,29.84,WNW,286,0.0,6.0,20,0.00,,,0.00,meteohub,2013-01-30 23:40:00,
2013-01-30 15:47:00,79.9,35.2,29.84,WNW,286,4.0,6.0,20,0.00,,,0.00,meteohub,2013-01-30 23:47:00,
2013-01-30 15:53:00,79.0,34.5,29.84,NW,318,4.0,4.0,20,0.00,,,0.00,meteohub,2013-01-30 23:53:00,
2013-01-30 15:59:00,77.5,33.3,29.84,NW,305,3.0,4.0,20,0.00,,,0.00,meteohub,2013-01-30 23:59:00,
2013-01-30 16:05:00,75.4,31.5,29.84,WSW,245,3.0,4.0,20,0.00,,,0.00,meteohub,2013-01-31 00:05:00,
2013-01-30 16:11:00,72.9,31.8,29.84,SW,218,4.0,5.0,22,0.00,,,0.00,meteohub,2013-01-31 00:11:00,
2013-01-30 16:17:00,72.3,31.3,29.84,WSW,238,0.0,5.0,22,0.00,,,0.00,meteohub,2013-01-31 00:17:00,
2013-01-30 16:23:00,72.1,31.1,29.84,South,173,3.0,4.0,22,0.00,,,0.00,meteohub,2013-01-31 00:23:00,
2013-01-30 16:29:00,73.2,32.2,29.84,WSW,239,0.0,4.0,22,0.00,,,0.00,meteohub,2013-01-31 00:29:00,
2013-01-30 16:35:00,75.4,32.7,29.84,West,272,3.0,4.0,21,0.00,,,0.00,meteohub,2013-01-31 00:35:00,
2013-01-30 16:41:00,73.6,31.3,29.84,NNW,339,3.0,4.0,21,0.00,,,0.00,meteohub,2013-01-31 00:41:00,
2013-01-30 16:47:00,72.0,31.1,29.84,North,0,3.0,4.0,22,0.00,,,0.00,meteohub,2013-01-31 00:47:00,
2013-01-30 16:53:00,71.2,30.4,29.84,West,277,3.0,4.0,22,0.00,,,0.00,meteohub,2013-01-31 00:53:00,
2013-01-30 16:59:00,70.5,29.8,29.84,SW,232,0.0,4.0,22,0.00,,,0.00,meteohub,2013-01-31 00:59:00,
2013-01-30 17:05:00,69.1,29.7,29.84,SW,232,0.0,4.0,23,0.00,,,0.00,meteohub,2013-01-31 01:05:00,
2013-01-30 17:11:00,66.9,27.9,29.84,NNW,340,4.0,4.0,23,0.00,,,0.00,meteohub,2013-01-31 01:11:00,
2013-01-30 17:17:00,65.5,27.7,29.84,WNW,296,0.0,4.0,24,0.00,,,0.00,meteohub,2013-01-31 01:17:00,
2013-01-30 17:23:00,63.5,28.9,29.84,NNW,337,0.0,4.0,27,0.00,,,0.00,meteohub,2013-01-31 01:23:00,
2013-01-30 17:29:00,62.8,27.3,29.84,NNW,342,0.0,4.0,26,0.00,,,0.00,meteohub,2013-01-31 01:29:00,
2013-01-30 17:35:00,62.2,27.0,29.84,NW,325,0.0,5.0,26,0.00,,,0.00,meteohub,2013-01-31 01:35:00,
2013-01-30 17:41:00,62.2,26.1,29.84,NNW,328,2.0,6.0,25,0.00,,,0.00,meteohub,2013-01-31 01:41:00,
2013-01-30 17:47:00,62.1,25.9,29.84,North,353,2.0,6.0,25,0.00,,,0.00,meteohub,2013-01-31 01:47:00,
2013-01-30 17:53:00,61.9,25.7,29.84,NNW,341,4.0,6.0,25,0.00,,,0.00,meteohub,2013-01-31 01:53:00,
2013-01-30 18:00:00,62.1,25.9,29.84,North,357,3.0,5.0,25,0.00,,,0.00,meteohub,2013-01-31 02:00:00,
2013-01-30 18:06:00,61.9,25.7,29.84,North,353,3.0,5.0,25,0.00,,,0.00,meteohub,2013-01-31 02:06:00,
2013-01-30 18:12:00,61.7,25.5,29.84,NNW,348,4.0,4.0,25,0.00,,,0.00,meteohub,2013-01-31 02:12:00,
2013-01-30 18:18:00,61.5,25.3,29.84,North,5,4.0,4.0,25,0.00,,,0.00,meteohub,2013-01-31 02:18:00,
2013-01-30 18:24:00,61.2,25.0,29.84,North,353,3.0,4.0,25,0.00,,,0.00,meteohub,2013-01-31 02:24:00,
2013-01-30 18:30:00,61.3,25.2,29.84,North,353,3.0,4.0,25,0.00,,,0.00,meteohub,2013-01-31 02:30:00,
2013-01-30 18:36:00,60.6,24.6,29.84,North,353,0.0,4.0,25,0.00,,,0.00,meteohub,2013-01-31 02:36:00,
2013-01-30 18:42:00,60.1,24.1,29.84,North,353,0.0,4.0,25,0.00,,,0.00,meteohub,2013-01-31 02:42:00,
2013-01-30 18:48:00,59.2,23.4,29.84,North,353,0.0,3.0,25,0.00,,,0.00,meteohub,2013-01-31 02:48:00,
2013-01-30 18:54:00,59.7,25.7,29.84,North,353,0.0,0.0,27,0.00,,,0.00,meteohub,2013-01-31 02:54:00,
2013-01-30 19:00:00,59.0,26.8,29.84,North,353,0.0,0.0,29,0.00,,,0.00,meteohub,2013-01-31 03:00:00,
2013-01-30 19:06:00,59.0,30.7,29.84,North,353,0.0,0.0,34,0.00,,,0.00,meteohub,2013-01-31 03:06:00,
2013-01-30 19:12:00,58.8,28.2,29.84,NNW,344,0.0,0.0,31,0.00,,,0.00,meteohub,2013-01-31 03:12:00,
2013-01-30 19:18:00,59.4,25.3,29.84,NNW,348,4.0,0.0,27,0.00,,,0.00,meteohub,2013-01-31 03:18:00,
2013-01-30 19:24:00,60.1,25.2,29.84,North,1,3.0,5.0,26,0.00,,,0.00,meteohub,2013-01-31 03:24:00,
2013-01-30 19:30:00,60.1,25.2,29.84,North,353,4.0,5.0,26,0.00,,,0.00,meteohub,2013-01-31 03:30:00,
2013-01-30 19:36:00,60.1,25.2,29.84,North,353,3.0,5.0,26,0.00,,,0.00,meteohub,2013-01-31 03:36:00,
2013-01-30 19:42:00,59.9,25.0,29.84,NNW,328,3.0,5.0,26,0.00,,,0.00,meteohub,2013-01-31 03:42:00,
2013-01-30 19:48:00,59.9,25.0,29.84,NW,320,2.0,5.0,26,0.00,,,0.00,meteohub,2013-01-31 03:48:00,
2013-01-30 19:54:00,60.1,25.2,29.84,North,353,3.0,6.0,26,0.00,,,0.00,meteohub,2013-01-31 03:54:00,
2013-01-30 20:00:00,59.7,24.8,29.84,North,357,3.0,6.0,26,0.00,,,0.00,meteohub,2013-01-31 04:00:00,
2013-01-30 20:06:00,59.2,24.3,29.84,NW,316,2.0,4.0,26,0.00,,,0.00,meteohub,2013-01-31 04:06:00,
2013-01-30 20:12:00,58.5,24.6,29.84,WNW,295,0.0,4.0,27,0.00,,,0.00,meteohub,2013-01-31 04:12:00,
2013-01-30 20:18:00,58.1,24.3,29.84,WNW,295,0.0,4.0,27,0.00,,,0.00,meteohub,2013-01-31 04:18:00,
2013-01-30 20:24:00,57.4,23.7,29.84,WNW,295,0.0,4.0,27,0.00,,,0.00,meteohub,2013-01-31 04:24:00,
2013-01-30 20:30:00,57.9,25.0,29.84,WNW,295,0.0,0.0,28,0.00,,,0.00,meteohub,2013-01-31 04:30:00,
2013-01-30 20:36:00,57.9,26.6,29.84,WNW,294,0.0,0.0,30,0.00,,,0.00,meteohub,2013-01-31 04:36:00,
2013-01-30 20:42:00,57.2,26.8,29.87,WSW,247,0.0,0.0,31,0.00,,,0.00,meteohub,2013-01-31 04:42:00,
2013-01-30 20:48:00,57.7,30.2,29.87,East,100,0.0,0.0,35,0.00,,,0.00,meteohub,2013-01-31 04:48:00,
2013-01-30 20:54:00,57.6,30.0,29.87,ENE,76,0.0,3.0,35,0.00,,,0.00,meteohub,2013-01-31 04:54:00,
2013-01-30 21:01:00,57.2,29.8,29.87,ENE,76,0.0,0.0,35,0.00,,,0.00,meteohub,2013-01-31 05:01:00,
2013-01-30 21:03:00,57.0,30.4,29.87,ENE,76,0.0,0.0,36,0.00,,,0.00,meteohub,2013-01-31 05:03:00,
2013-01-30 21:09:00,56.7,29.3,29.87,NNE,31,0.0,0.0,35,0.00,,,0.00,meteohub,2013-01-31 05:09:00,
2013-01-30 21:15:00,56.7,29.3,29.87,NNE,31,0.0,0.0,35,0.00,,,0.00,meteohub,2013-01-31 05:15:00,
2013-01-30 21:17:00,56.5,29.1,29.87,NNE,31,0.0,0.0,35,0.00,,,0.00,meteohub,2013-01-31 05:17:00,
2013-01-30 21:23:00,56.1,28.8,29.87,NNE,31,0.0,0.0,35,0.00,,,0.00,meteohub,2013-01-31 05:23:00,
2013-01-30 21:29:00,55.8,28.6,29.87,NNE,31,0.0,0.0,35,0.00,,,0.00,meteohub,2013-01-31 05:29:00,
2013-01-30 21:35:00,55.6,28.4,29.87,NNE,31,0.0,0.0,35,0.00,,,0.00,meteohub,2013-01-31 05:35:00,
2013-01-30 21:42:00,55.6,28.4,29.87,NNE,31,0.0,0.0,35,0.00,,,0.00,meteohub,2013-01-31 05:42:00,
2013-01-30 21:47:00,56.1,29.5,29.87,SE,142,0.0,0.0,36,0.00,,,0.00,meteohub,2013-01-31 05:47:00,
2013-01-30 21:52:00,55.9,29.3,29.87,SE,142,0.0,0.0,36,0.00,,,0.00,meteohub,2013-01-31 05:52:00,
2013-01-30 21:58:00,55.8,29.1,29.87,ENE,77,0.0,0.0,36,0.00,,,0.00,meteohub,2013-01-31 05:58:00,
2013-01-30 22:04:00,56.3,29.7,29.87,ENE,77,0.0,0.0,36,0.00,,,0.00,meteohub,2013-01-31 06:04:00,
2013-01-30 22:10:00,56.3,30.4,29.87,ENE,77,0.0,0.0,37,0.00,,,0.00,meteohub,2013-01-31 06:10:00,
2013-01-30 22:16:00,56.7,30.7,29.87,ESE,114,0.0,0.0,37,0.00,,,0.00,meteohub,2013-01-31 06:16:00,
2013-01-30 22:22:00,56.7,31.3,29.87,ESE,114,0.0,0.0,38,0.00,,,0.00,meteohub,2013-01-31 06:22:00,
2013-01-30 22:28:00,56.3,31.1,29.87,ESE,114,0.0,0.0,38,0.00,,,0.00,meteohub,2013-01-31 06:28:00,
2013-01-30 22:34:00,55.9,31.3,29.87,ESE,114,0.0,0.0,39,0.00,,,0.00,meteohub,2013-01-31 06:34:00,
2013-01-30 22:40:00,56.1,32.2,29.87,ESE,114,0.0,0.0,40,0.00,,,0.00,meteohub,2013-01-31 06:40:00,
2013-01-30 22:46:00,56.3,33.4,29.87,ESE,114,0.0,0.0,42,0.00,,,0.00,meteohub,2013-01-31 06:46:00,
2013-01-30 22:52:00,56.3,34.7,29.87,ESE,114,0.0,0.0,44,0.00,,,0.00,meteohub,2013-01-31 06:52:00,
2013-01-30 22:58:00,55.9,34.9,29.87,ESE,114,0.0,0.0,45,0.00,,,0.00,meteohub,2013-01-31 06:58:00,
2013-01-30 23:04:00,55.4,34.3,29.87,ESE,114,0.0,0.0,45,0.00,,,0.00,meteohub,2013-01-31 07:04:00,
2013-01-30 23:10:00,55.2,35.4,29.87,ESE,114,0.0,0.0,47,0.00,,,0.00,meteohub,2013-01-31 07:10:00,
2013-01-30 23:16:00,55.2,35.4,29.87,NE,45,0.0,0.0,47,0.00,,,0.00,meteohub,2013-01-31 07:16:00,
2013-01-30 23:22:00,55.2,36.0,29.87,NE,45,0.0,0.0,48,0.00,,,0.00,meteohub,2013-01-31 07:22:00,
2013-01-30 23:28:00,55.0,35.2,29.87,NE,45,0.0,0.0,47,0.00,,,0.00,meteohub,2013-01-31 07:28:00,
2013-01-30 23:34:00,54.7,34.9,29.87,NE,45,0.0,0.0,47,0.00,,,0.00,meteohub,2013-01-31 07:34:00,
2013-01-30 23:41:00,55.2,35.4,29.87,NE,45,0.0,0.0,47,0.00,,,0.00,meteohub,2013-01-31 07:41:00,
2013-01-30 23:47:00,55.2,36.0,29.87,North,8,0.0,0.0,48,0.00,,,0.00,meteohub,2013-01-31 07:47:00,
2013-01-30 23:53:00,54.9,35.1,29.87,North,8,0.0,0.0,47,0.00,,,0.00,meteohub,2013-01-31 07:53:00,
2013-01-30 23:59:00,54.5,34.2,29.87,North,8,0.0,0.0,46,0.00,,,0.00,meteohub,2013-01-31 07:59:00,